This is the latest recevied weather packets stored in our database for station/object N3WAX-1. If no packets are shown the sender has not sent any weather packets the latest 10 day(s).
| Time | Temp. | Humidity | Pressure | Rain* | Wind** | Luminosity | Snow |
|---|---|---|---|---|---|---|---|
| 1777484120 | 14.44° C | 66% | 1013 hPa | 0 mm | - | 255 W/m² | - |
| 1777474197 | 13.33° C | 62% | 1014.9 hPa | 0 mm | - | 209 W/m² | - |
| 1777472515 | 12.78° C | 66% | 1015.1 hPa | 0 mm | - | 185 W/m² | - |
| 1777470291 | 12.78° C | 66% | 1015.2 hPa | 0 mm | - | 204 W/m² | - |
| 1777467397 | 12.22° C | 63% | 1015.4 hPa | 0 mm | - | 283 W/m² | - |
| 1777466658 | 11.67° C | 63% | 1015.5 hPa | 0 mm | - | 186 W/m² | - |
| 1777465456 | 11.67° C | 63% | 1015.4 hPa | 0 mm | - | 156 W/m² | - |
| 1777463346 | 11.11° C | 65% | 1015.4 hPa | 0 mm | - | 134 W/m² | - |
| 1777462890 | 11.11° C | 66% | 1015.5 hPa | 0 mm | - | 114 W/m² | - |
| 1777460646 | 10.56° C | 69% | 1016 hPa | 0 mm | - | 37 W/m² | - |
| 1777457343 | 10° C | 69% | 1015.7 hPa | 0 mm | - | 0 W/m² | - |
| 1777456284 | 10° C | 73% | 1015.6 hPa | 0 mm | - | 0 W/m² | - |
| 1777455537 | 10° C | 74% | 1015.6 hPa | 0 mm | - | 0 W/m² | - |
| 1777454758 | 10° C | 74% | 1015.9 hPa | 0 mm | - | 0 W/m² | - |
| 1777453694 | 10° C | 73% | 1016.1 hPa | 0 mm | - | 0 W/m² | - |
| 1777453077 | 10° C | 73% | 1016 hPa | 0 mm | - | 0 W/m² | - |
| 1777451537 | 10° C | 72% | 1015.7 hPa | 0 mm | - | 0 W/m² | - |
| 1777451232 | 10° C | 72% | 1015.7 hPa | 0 mm | - | 0 W/m² | - |
| 1777450310 | 10° C | 72% | 1016 hPa | 0 mm | - | 0 W/m² | - |
| 1777449387 | 10° C | 72% | 1016.1 hPa | 0 mm | - | 0 W/m² | - |
| 1777448771 | 10.56° C | 72% | 1016.2 hPa | 0 mm | - | 0 W/m² | - |
| 1777448466 | 10.56° C | 72% | 1016.3 hPa | 0 mm | - | 0 W/m² | - |
| 1777446005 | 10.56° C | 73% | 1016.5 hPa | 0 mm | - | 0 W/m² | - |
| 1777442959 | 10.56° C | 75% | 1017.2 hPa | 0 mm | - | 0 W/m² | - |
| 1777442057 | 10.56° C | 75% | 1017.2 hPa | 0 mm | - | 0 W/m² | - |
* Rain latest hour (hover to see other rain measurements)
** Current wind speed in m/s (hover to see current wind gust speed)